First Ferry Vi — VRS4293 — position and weather

sailwx.info

Track history (hours):
 
Tides and Currents Weather Stations Pressure Air Temp Water Temp Dewpoint Dewpoint Depression Visibility Wind Speed Wind Dir Waves Ship Positions

First Ferry Vi

Last reported at 2015-Jul-06 06:33 UTC. Time now 2015-Jul-06 07:06 UTC.
Position N 22°18' E 114°12'.

; draft 1.8 m.

Type: Ship. MMSI: 477995028.

Date/timePositionNaut miles runAvg speedWind from/ knotsBaromVisibWave heightAir tempDewpointWater temp
2015-Jul-06 06:33N 22°18' E 114°12'1 0.7
2015-Jul-06 05:33N 22°19' E 114°12'0 0.0
2015-Jul-06 04:33N 22°19' E 114°12'0 0.0
2015-Jul-06 03:33N 22°19' E 114°12'0 0.0
2015-Jul-06 02:33N 22°19' E 114°12'3 2.3
2015-Jul-06 01:21N 22°20' E 114°09'8 6.0
2015-Jul-06 00:05N 22°16' E 114°02'714.0
2015-Jul-05 23:33N 22°17' E 114°10'0 0.0
2015-Jul-05 16:33N 22°18' E 114°09'2 1.2
2015-Jul-05 14:33N 22°17' E 114°07'1 0.4
2015-Jul-05 12:33N 22°17' E 114°06'0 0.2
2015-Jul-05 10:33N 22°17' E 114°06'0 0.1
2015-Jul-05 08:33N 22°17' E 114°06'0 0.1
2015-Jul-05 06:33N 22°17' E 114°06'3 1.1
2015-Jul-05 04:09N 22°16' E 114°04'5 9.0
2015-Jul-05 03:33N 22°18' E 114°09'1 1.3
2015-Jul-05 02:32N 22°20' E 114°09'0 0.0
2015-Jul-05 01:33N 22°20' E 114°09'2 2.3
2015-Jul-05 00:34N 22°17' E 114°09'5 4.0
2015-Jul-04 23:18N 22°16' E 114°04'5 0.7
2015-Jul-04 15:34N 22°17' E 114°10'8 6.5
2015-Jul-04 14:24N 22°16' E 114°02'7 2.6
2015-Jul-04 11:33N 22°17' E 114°10'4 2.8
2015-Jul-04 10:16N 22°17' E 114°06'4 6.0
2015-Jul-04 09:33N 22°17' E 114°10'8 5.9
2015-Jul-04 08:14N 22°16' E 114°02'710.8
2015-Jul-04 07:33N 22°17' E 114°10'7 5.6
2015-Jul-04 06:14N 22°16' E 114°02'5 7.6
2015-Jul-04 05:33N 22°17' E 114°07'2 1.1
2015-Jul-04 03:26N 22°17' E 114°10'4 3.0
2015-Jul-04 02:04N 22°17' E 114°05'5 9.0
2015-Jul-04 01:33N 22°17' E 114°10'2 1.8
2015-Jul-04 00:33N 22°19' E 114°09'5 4.2
2015-Jul-03 23:18N 22°16' E 114°04'5 0.6
2015-Jul-03 15:33N 22°17' E 114°10'5 3.9
2015-Jul-03 14:18N 22°17' E 114°04'5 6.8
2015-Jul-03 13:33N 22°17' E 114°10'0 0.2
2015-Jul-03 12:33N 22°17' E 114°10'3 2.5
2015-Jul-03 11:28N 22°17' E 114°07'0 0.2
2015-Jul-03 10:14N 22°17' E 114°06'4 6.0
2015-Jul-03 09:33N 22°17' E 114°11'2 1.7
2015-Jul-03 08:33N 22°19' E 114°12'0 0.0
2015-Jul-03 07:33N 22°19' E 114°12'0 0.0
2015-Jul-03 06:33N 22°19' E 114°12'1 1.2
2015-Jul-03 05:33N 22°18' E 114°11'2 0.8
2015-Jul-03 03:31N 22°17' E 114°10'0 0.1
2015-Jul-03 01:33N 22°17' E 114°09'1 1.2
2015-Jul-03 00:33N 22°19' E 114°09'5 3.8
2015-Jul-02 23:17N 22°16' E 114°05'5 0.6
2015-Jul-02 15:34N 22°17' E 114°10'5 3.6
2015-Jul-02 14:18N 22°17' E 114°05'6 8.4
2015-Jul-02 13:33N 22°18' E 114°11'2 1.8
2015-Jul-02 12:34N 22°17' E 114°10'4 4.1
2015-Jul-02 11:31N 22°17' E 114°05'1 0.5
2015-Jul-02 10:16N 22°17' E 114°06'5 7.8
2015-Jul-02 09:34N 22°18' E 114°11'1 1.0
2015-Jul-02 08:33N 22°19' E 114°12'0 0.0
2015-Jul-02 07:33N 22°19' E 114°12'0 0.0
2015-Jul-02 06:33N 22°19' E 114°12'1 1.0
2015-Jul-02 05:33N 22°18' E 114°12'2 1.0
2015-Jul-02 03:33N 22°17' E 114°10'1 0.3
2015-Jul-02 01:34N 22°18' E 114°09'1 1.1
2015-Jul-02 00:33N 22°19' E 114°09'6 4.5
2015-Jul-01 23:19N 22°16' E 114°04'3 0.5
2015-Jul-01 16:13N 22°16' E 114°01'912.8
2015-Jul-01 15:34N 22°17' E 114°10'7 4.7
2015-Jul-01 14:03N 22°16' E 114°02'714.1
2015-Jul-01 13:33N 22°17' E 114°10'0 0.2
2015-Jul-01 11:33N 22°17' E 114°10'7 4.8
2015-Jul-01 10:03N 22°16' E 114°02'714.1
2015-Jul-01 09:34N 22°17' E 114°10'7 4.6
2015-Jul-01 08:03N 22°16' E 114°02'714.2
2015-Jul-01 07:33N 22°17' E 114°10'7 4.8
2015-Jul-01 06:04N 22°16' E 114°02'713.8
2015-Jul-01 05:33N 22°17' E 114°10'6 4.9
2015-Jul-01 04:14N 22°16' E 114°03'7 9.7
2015-Jul-01 03:33N 22°17' E 114°10'6 4.9
2015-Jul-01 02:25N 22°15' E 114°04'6 7.1
2015-Jul-01 01:33N 22°20' E 114°09'0 0.0
2015-Jul-01 00:30N 22°20' E 114°09'0 0.0
2015-Jun-30 23:33N 22°20' E 114°09'2 0.3
2015-Jun-30 15:33N 22°17' E 114°10'7 6.6
2015-Jun-30 14:25N 22°16' E 114°02'910.5
2015-Jun-30 13:33N 22°18' E 114°11'2 1.5
2015-Jun-30 12:34N 22°17' E 114°10'4 3.9
2015-Jun-30 11:32N 22°17' E 114°05'1 0.7
2015-Jun-30 10:18N 22°17' E 114°05'7 8.9
2015-Jun-30 09:33N 22°18' E 114°12'1 0.9
2015-Jun-30 08:33N 22°19' E 114°12'0 0.0
2015-Jun-30 07:33N 22°19' E 114°12'0 0.0
2015-Jun-30 06:33N 22°19' E 114°12'2 1.8
2015-Jun-30 05:33N 22°18' E 114°11'1 0.5
2015-Jun-30 03:33N 22°17' E 114°10'5 3.8
2015-Jun-30 02:10N 22°16' E 114°04'5 8.6
2015-Jun-30 01:33N 22°18' E 114°09'1 1.1
2015-Jun-30 00:33N 22°19' E 114°09'6 4.7
2015-Jun-29 23:20N 22°15' E 114°04'5 7.0
2015-Jun-29 22:33N 22°17' E 114°10'3 2.7
2015-Jun-29 21:34N 22°17' E 114°07'3 0.4
2015-Jun-29 15:33N 22°17' E 114°10'6 5.3
2015-Jun-29 14:22N 22°16' E 114°03'6 7.8
2015-Jun-29 13:33N 22°17' E 114°10'0 0.1
2015-Jun-29 12:33N 22°17' E 114°10'4 4.3
2015-Jun-29 11:32N 22°17' E 114°05'2 2.1
2015-Jun-29 10:24N 22°16' E 114°03'810.1
2015-Jun-29 09:33N 22°18' E 114°11'1 1.0
2015-Jun-29 08:33N 22°19' E 114°12'1 1.0
2015-Jun-29 07:33N 22°18' E 114°12'2 1.0
2015-Jun-29 05:33N 22°17' E 114°10'0 0.0
2015-Jun-29 03:32N 22°17' E 114°10'3 1.1
2015-Jun-29 01:19N 22°20' E 114°09'1 1.3
2015-Jun-29 00:34N 22°19' E 114°09'6 4.8
2015-Jun-28 23:19N 22°15' E 114°04'6 0.7
2015-Jun-28 15:34N 22°17' E 114°10'0 0.0
2015-Jun-28 13:33N 22°17' E 114°10'0 0.0
2015-Jun-28 11:33N 22°17' E 114°10'7 4.7
2015-Jun-28 10:03N 22°16' E 114°02'714.3
2015-Jun-28 09:33N 22°17' E 114°10'7 4.6
2015-Jun-28 08:03N 22°16' E 114°02'713.9
2015-Jun-28 07:33N 22°17' E 114°10'7 4.6
2015-Jun-28 06:05N 22°16' E 114°02'713.1
2015-Jun-28 05:34N 22°17' E 114°10'8 6.9
2015-Jun-28 04:28N 22°16' E 114°02'8 6.7
2015-Jun-28 03:18N 22°20' E 114°09'0 0.0
2015-Jun-28 01:33N 22°20' E 114°09'0 0.0
2015-Jun-28 00:30N 22°20' E 114°09'0 0.0
2015-Jun-27 23:30N 22°20' E 114°09'2 0.3
2015-Jun-27 15:33N 22°17' E 114°09'7 6.3
2015-Jun-27 14:24N 22°16' E 114°02'4 5.0
2015-Jun-27 13:33N 22°17' E 114°06'3 1.5
2015-Jun-27 11:34N 22°17' E 114°10'6 5.5
2015-Jun-27 10:22N 22°16' E 114°03'7 8.3
2015-Jun-27 09:33N 22°17' E 114°10'8 6.1
2015-Jun-27 08:16N 22°16' E 114°01'810.9
2015-Jun-27 07:34N 22°17' E 114°10'7 5.5
2015-Jun-27 06:15N 22°16' E 114°02'710.4
2015-Jun-27 05:33N 22°17' E 114°10'3 2.6
2015-Jun-27 04:33N 22°19' E 114°12'1 1.3
2015-Jun-27 03:33N 22°18' E 114°11'1 0.6
2015-Jun-27 01:34N 22°17' E 114°10'2 2.4
2015-Jun-27 00:32N 22°19' E 114°09'7 6.2
2015-Jun-26 23:23N 22°15' E 114°03'7 0.8
2015-Jun-26 15:33N 22°17' E 114°10'7 6.3
2015-Jun-26 14:24N 22°16' E 114°02'910.2
2015-Jun-26 13:33N 22°18' E 114°11'1 1.3
2015-Jun-26 12:33N 22°17' E 114°10'4 4.3
2015-Jun-26 11:32N 22°16' E 114°05'2 1.8
2015-Jun-26 10:22N 22°16' E 114°03'810.4
2015-Jun-26 09:33N 22°18' E 114°12'1 0.9
2015-Jun-26 08:33N 22°19' E 114°12'0 0.0
2015-Jun-26 07:33N 22°19' E 114°12'  
Track history (hours):
 
Tides and Currents Weather Stations Pressure Air Temp Water Temp Dewpoint Dewpoint Depression Visibility Wind Speed Wind Dir Waves Ship Positions

First Ferry Vi

Last reported at 2015-Jul-06 06:33 UTC. Time now 2015-Jul-06 07:06 UTC.
Position N 22°18' E 114°12'.

; draft 1.8 m.

Type: Ship. MMSI: 477995028.

Date/timePositionNaut miles runAvg speedWind from/ knotsBaromVisibWave heightAir tempDewpointWater temp
2015-Jul-06 06:33N 22°18' E 114°12'1 0.7
2015-Jul-06 05:33N 22°19' E 114°12'0 0.0
2015-Jul-06 04:33N 22°19' E 114°12'0 0.0
2015-Jul-06 03:33N 22°19' E 114°12'0 0.0
2015-Jul-06 02:33N 22°19' E 114°12'3 2.3
2015-Jul-06 01:21N 22°20' E 114°09'8 6.0
2015-Jul-06 00:05N 22°16' E 114°02'714.0
2015-Jul-05 23:33N 22°17' E 114°10'0 0.0
2015-Jul-05 16:33N 22°18' E 114°09'2 1.2
2015-Jul-05 14:33N 22°17' E 114°07'1 0.4
2015-Jul-05 12:33N 22°17' E 114°06'0 0.2
2015-Jul-05 10:33N 22°17' E 114°06'0 0.1
2015-Jul-05 08:33N 22°17' E 114°06'0 0.1
2015-Jul-05 06:33N 22°17' E 114°06'3 1.1
2015-Jul-05 04:09N 22°16' E 114°04'5 9.0
2015-Jul-05 03:33N 22°18' E 114°09'1 1.3
2015-Jul-05 02:32N 22°20' E 114°09'0 0.0
2015-Jul-05 01:33N 22°20' E 114°09'2 2.3
2015-Jul-05 00:34N 22°17' E 114°09'5 4.0
2015-Jul-04 23:18N 22°16' E 114°04'5 0.7
2015-Jul-04 15:34N 22°17' E 114°10'8 6.5
2015-Jul-04 14:24N 22°16' E 114°02'7 2.6
2015-Jul-04 11:33N 22°17' E 114°10'4 2.8
2015-Jul-04 10:16N 22°17' E 114°06'4 6.0
2015-Jul-04 09:33N 22°17' E 114°10'8 5.9
2015-Jul-04 08:14N 22°16' E 114°02'710.8
2015-Jul-04 07:33N 22°17' E 114°10'7 5.6
2015-Jul-04 06:14N 22°16' E 114°02'5 7.6
2015-Jul-04 05:33N 22°17' E 114°07'2 1.1
2015-Jul-04 03:26N 22°17' E 114°10'4 3.0
2015-Jul-04 02:04N 22°17' E 114°05'5 9.0
2015-Jul-04 01:33N 22°17' E 114°10'2 1.8
2015-Jul-04 00:33N 22°19' E 114°09'5 4.2
2015-Jul-03 23:18N 22°16' E 114°04'5 0.6
2015-Jul-03 15:33N 22°17' E 114°10'5 3.9
2015-Jul-03 14:18N 22°17' E 114°04'5 6.8
2015-Jul-03 13:33N 22°17' E 114°10'0 0.2
2015-Jul-03 12:33N 22°17' E 114°10'3 2.5
2015-Jul-03 11:28N 22°17' E 114°07'0 0.2
2015-Jul-03 10:14N 22°17' E 114°06'4 6.0
2015-Jul-03 09:33N 22°17' E 114°11'2 1.7
2015-Jul-03 08:33N 22°19' E 114°12'0 0.0
2015-Jul-03 07:33N 22°19' E 114°12'0 0.0
2015-Jul-03 06:33N 22°19' E 114°12'1 1.2
2015-Jul-03 05:33N 22°18' E 114°11'2 0.8
2015-Jul-03 03:31N 22°17' E 114°10'0 0.1
2015-Jul-03 01:33N 22°17' E 114°09'1 1.2
2015-Jul-03 00:33N 22°19' E 114°09'5 3.8
2015-Jul-02 23:17N 22°16' E 114°05'5 0.6
2015-Jul-02 15:34N 22°17' E 114°10'5 3.6
2015-Jul-02 14:18N 22°17' E 114°05'6 8.4
2015-Jul-02 13:33N 22°18' E 114°11'2 1.8
2015-Jul-02 12:34N 22°17' E 114°10'4 4.1
2015-Jul-02 11:31N 22°17' E 114°05'1 0.5
2015-Jul-02 10:16N 22°17' E 114°06'5 7.8
2015-Jul-02 09:34N 22°18' E 114°11'1 1.0
2015-Jul-02 08:33N 22°19' E 114°12'0 0.0
2015-Jul-02 07:33N 22°19' E 114°12'0 0.0
2015-Jul-02 06:33N 22°19' E 114°12'1 1.0
2015-Jul-02 05:33N 22°18' E 114°12'2 1.0
2015-Jul-02 03:33N 22°17' E 114°10'1 0.3
2015-Jul-02 01:34N 22°18' E 114°09'1 1.1
2015-Jul-02 00:33N 22°19' E 114°09'6 4.5
2015-Jul-01 23:19N 22°16' E 114°04'3 0.5
2015-Jul-01 16:13N 22°16' E 114°01'912.8
2015-Jul-01 15:34N 22°17' E 114°10'7 4.7
2015-Jul-01 14:03N 22°16' E 114°02'714.1
2015-Jul-01 13:33N 22°17' E 114°10'0 0.2
2015-Jul-01 11:33N 22°17' E 114°10'7 4.8
2015-Jul-01 10:03N 22°16' E 114°02'714.1
2015-Jul-01 09:34N 22°17' E 114°10'7 4.6
2015-Jul-01 08:03N 22°16' E 114°02'714.2
2015-Jul-01 07:33N 22°17' E 114°10'7 4.8
2015-Jul-01 06:04N 22°16' E 114°02'713.8
2015-Jul-01 05:33N 22°17' E 114°10'6 4.9
2015-Jul-01 04:14N 22°16' E 114°03'7 9.7
2015-Jul-01 03:33N 22°17' E 114°10'6 4.9
2015-Jul-01 02:25N 22°15' E 114°04'6 7.1
2015-Jul-01 01:33N 22°20' E 114°09'0 0.0
2015-Jul-01 00:30N 22°20' E 114°09'0 0.0
2015-Jun-30 23:33N 22°20' E 114°09'2 0.3
2015-Jun-30 15:33N 22°17' E 114°10'7 6.6
2015-Jun-30 14:25N 22°16' E 114°02'910.5
2015-Jun-30 13:33N 22°18' E 114°11'2 1.5
2015-Jun-30 12:34N 22°17' E 114°10'4 3.9
2015-Jun-30 11:32N 22°17' E 114°05'1 0.7
2015-Jun-30 10:18N 22°17' E 114°05'7 8.9
2015-Jun-30 09:33N 22°18' E 114°12'1 0.9
2015-Jun-30 08:33N 22°19' E 114°12'0 0.0
2015-Jun-30 07:33N 22°19' E 114°12'0 0.0
2015-Jun-30 06:33N 22°19' E 114°12'2 1.8
2015-Jun-30 05:33N 22°18' E 114°11'1 0.5
2015-Jun-30 03:33N 22°17' E 114°10'5 3.8
2015-Jun-30 02:10N 22°16' E 114°04'5 8.6
2015-Jun-30 01:33N 22°18' E 114°09'1 1.1
2015-Jun-30 00:33N 22°19' E 114°09'6 4.7
2015-Jun-29 23:20N 22°15' E 114°04'5 7.0
2015-Jun-29 22:33N 22°17' E 114°10'3 2.7
2015-Jun-29 21:34N 22°17' E 114°07'3 0.4
2015-Jun-29 15:33N 22°17' E 114°10'6 5.3
2015-Jun-29 14:22N 22°16' E 114°03'6 7.8
2015-Jun-29 13:33N 22°17' E 114°10'0 0.1
2015-Jun-29 12:33N 22°17' E 114°10'4 4.3
2015-Jun-29 11:32N 22°17' E 114°05'2 2.1
2015-Jun-29 10:24N 22°16' E 114°03'810.1
2015-Jun-29 09:33N 22°18' E 114°11'1 1.0
2015-Jun-29 08:33N 22°19' E 114°12'1 1.0
2015-Jun-29 07:33N 22°18' E 114°12'2 1.0
2015-Jun-29 05:33N 22°17' E 114°10'0 0.0
2015-Jun-29 03:32N 22°17' E 114°10'3 1.1
2015-Jun-29 01:19N 22°20' E 114°09'1 1.3
2015-Jun-29 00:34N 22°19' E 114°09'6 4.8
2015-Jun-28 23:19N 22°15' E 114°04'6 0.7
2015-Jun-28 15:34N 22°17' E 114°10'0 0.0
2015-Jun-28 13:33N 22°17' E 114°10'0 0.0
2015-Jun-28 11:33N 22°17' E 114°10'7 4.7
2015-Jun-28 10:03N 22°16' E 114°02'714.3
2015-Jun-28 09:33N 22°17' E 114°10'7 4.6
2015-Jun-28 08:03N 22°16' E 114°02'713.9
2015-Jun-28 07:33N 22°17' E 114°10'7 4.6
2015-Jun-28 06:05N 22°16' E 114°02'713.1
2015-Jun-28 05:34N 22°17' E 114°10'8 6.9
2015-Jun-28 04:28N 22°16' E 114°02'8 6.7
2015-Jun-28 03:18N 22°20' E 114°09'0 0.0
2015-Jun-28 01:33N 22°20' E 114°09'0 0.0
2015-Jun-28 00:30N 22°20' E 114°09'0 0.0
2015-Jun-27 23:30N 22°20' E 114°09'2 0.3
2015-Jun-27 15:33N 22°17' E 114°09'7 6.3
2015-Jun-27 14:24N 22°16' E 114°02'4 5.0
2015-Jun-27 13:33N 22°17' E 114°06'3 1.5
2015-Jun-27 11:34N 22°17' E 114°10'6 5.5
2015-Jun-27 10:22N 22°16' E 114°03'7 8.3
2015-Jun-27 09:33N 22°17' E 114°10'8 6.1
2015-Jun-27 08:16N 22°16' E 114°01'810.9
2015-Jun-27 07:34N 22°17' E 114°10'7 5.5
2015-Jun-27 06:15N 22°16' E 114°02'710.4
2015-Jun-27 05:33N 22°17' E 114°10'3 2.6
2015-Jun-27 04:33N 22°19' E 114°12'1 1.3
2015-Jun-27 03:33N 22°18' E 114°11'1 0.6
2015-Jun-27 01:34N 22°17' E 114°10'2 2.4
2015-Jun-27 00:32N 22°19' E 114°09'7 6.2
2015-Jun-26 23:23N 22°15' E 114°03'7 0.8
2015-Jun-26 15:33N 22°17' E 114°10'7 6.3
2015-Jun-26 14:24N 22°16' E 114°02'910.2
2015-Jun-26 13:33N 22°18' E 114°11'1 1.3
2015-Jun-26 12:33N 22°17' E 114°10'4 4.3
2015-Jun-26 11:32N 22°16' E 114°05'2 1.8
2015-Jun-26 10:22N 22°16' E 114°03'810.4
2015-Jun-26 09:33N 22°18' E 114°12'1 0.9
2015-Jun-26 08:33N 22°19' E 114°12'0 0.0
2015-Jun-26 07:33N 22°19' E 114°12'  

Dump ship's entire track history